sensor_id;sensor_type;location;lat;lon;timestamp;pressure;altitude;pressure_sealevel;temperature;humidity
5238;BME280;2639;49.700;7.962;2023-07-20T03:01:55;98671.06;;;14.12;92.04
5238;BME280;2639;49.700;7.962;2023-07-20T03:02:59;98674.41;;;14.10;92.55
5238;BME280;2639;49.700;7.962;2023-07-20T03:04:00;98668.28;;;14.08;92.87
5238;BME280;2639;49.700;7.962;2023-07-20T03:05:04;98671.66;;;14.07;93.03
5238;BME280;2639;49.700;7.962;2023-07-20T03:06:08;98675.84;;;14.05;93.30
5238;BME280;2639;49.700;7.962;2023-07-20T03:07:11;98674.97;;;14.05;93.01
5238;BME280;2639;49.700;7.962;2023-07-20T03:08:12;98670.50;;;14.02;93.11
5238;BME280;2639;49.700;7.962;2023-07-20T03:09:15;98668.72;;;14.01;93.12
5238;BME280;2639;49.700;7.962;2023-07-20T03:10:17;98675.47;;;13.99;94.02
5238;BME280;2639;49.700;7.962;2023-07-20T03:11:20;98674.50;;;13.97;93.64
5238;BME280;2639;49.700;7.962;2023-07-20T03:12:22;98669.16;;;13.94;94.18
5238;BME280;2639;49.700;7.962;2023-07-20T03:13:25;98673.31;;;13.92;94.53
5238;BME280;2639;49.700;7.962;2023-07-20T03:14:27;98680.06;;;13.90;94.77
5238;BME280;2639;49.700;7.962;2023-07-20T03:15:30;98679.13;;;13.88;94.91
5238;BME280;2639;49.700;7.962;2023-07-20T03:16:32;98678.31;;;13.89;95.13
5238;BME280;2639;49.700;7.962;2023-07-20T03:17:37;98678.31;;;13.89;95.25
5238;BME280;2639;49.700;7.962;2023-07-20T03:18:41;98677.41;;;13.88;94.81
5238;BME280;2639;49.700;7.962;2023-07-20T03:19:43;98671.38;;;13.88;95.38
5238;BME280;2639;49.700;7.962;2023-07-20T03:20:45;98669.69;;;13.88;95.50
5238;BME280;2639;49.700;7.962;2023-07-20T03:21:47;98673.16;;;13.89;94.84
5238;BME280;2639;49.700;7.962;2023-07-20T03:22:50;98673.16;;;13.89;95.27
5238;BME280;2639;49.700;7.962;2023-07-20T03:23:51;98677.41;;;13.88;95.65
5238;BME280;2639;49.700;7.962;2023-07-20T03:24:54;98671.28;;;13.86;95.77
5238;BME280;2639;49.700;7.962;2023-07-20T03:25:56;98677.16;;;13.84;95.92
5238;BME280;2639;49.700;7.962;2023-07-20T03:26:58;98678.75;;;13.82;96.81
5238;BME280;2639;49.700;7.962;2023-07-20T03:28:01;98682.19;;;13.82;96.57
5238;BME280;2639;49.700;7.962;2023-07-20T03:29:04;98674.38;;;13.81;96.87
5238;BME280;2639;49.700;7.962;2023-07-20T03:30:08;98678.75;;;13.82;96.40
5238;BME280;2639;49.700;7.962;2023-07-20T03:31:11;98684.72;;;13.81;96.72
5238;BME280;2639;49.700;7.962;2023-07-20T03:32:15;98683.91;;;13.82;96.59
5238;BME280;2639;49.700;7.962;2023-07-20T03:33:18;98683.91;;;13.82;96.06
5238;BME280;2639;49.700;7.962;2023-07-20T03:34:20;98683.91;;;13.82;96.22
5238;BME280;2639;49.700;7.962;2023-07-20T03:35:22;98681.31;;;13.82;96.67
5238;BME280;2639;49.700;7.962;2023-07-20T03:36:24;98683.09;;;13.83;96.73
5238;BME280;2639;49.700;7.962;2023-07-20T03:37:27;98684.88;;;13.84;97.34
5238;BME280;2639;49.700;7.962;2023-07-20T03:38:29;98678.84;;;13.83;97.28
5238;BME280;2639;49.700;7.962;2023-07-20T03:39:31;98679.72;;;13.84;96.29
5238;BME280;2639;49.700;7.962;2023-07-20T03:40:33;98681.50;;;13.85;96.18
5238;BME280;2639;49.700;7.962;2023-07-20T03:41:35;98679.91;;;13.87;96.53
5238;BME280;2639;49.700;7.962;2023-07-20T03:42:38;98679.19;;;13.89;96.28
5238;BME280;2639;49.700;7.962;2023-07-20T03:43:40;98682.75;;;13.92;96.37
5238;BME280;2639;49.700;7.962;2023-07-20T03:44:42;98681.97;;;13.93;96.22
5238;BME280;2639;49.700;7.962;2023-07-20T03:45:44;98685.63;;;13.96;95.79
5238;BME280;2639;49.700;7.962;2023-07-20T03:46:49;98686.59;;;13.98;95.67
5238;BME280;2639;49.700;7.962;2023-07-20T03:47:50;98672.09;;;14.00;95.47
5238;BME280;2639;49.700;7.962;2023-07-20T03:48:54;98681.00;;;14.05;95.43
5238;BME280;2639;49.700;7.962;2023-07-20T03:49:56;98676.72;;;14.06;94.48
5238;BME280;2639;49.700;7.962;2023-07-20T03:50:59;98678.59;;;14.08;93.89
5238;BME280;2639;49.700;7.962;2023-07-20T03:52:01;98679.59;;;14.10;93.99
5238;BME280;2639;49.700;7.962;2023-07-20T03:53:04;98681.38;;;14.12;94.25
5238;BME280;2639;49.700;7.962;2023-07-20T03:54:08;98678.00;;;14.13;93.69
5238;BME280;2639;49.700;7.962;2023-07-20T03:55:11;98686.72;;;14.15;93.76
5238;BME280;2639;49.700;7.962;2023-07-20T03:56:12;98673.91;;;14.16;93.01
5238;BME280;2639;49.700;7.962;2023-07-20T03:57:15;98688.69;;;14.19;92.58
5238;BME280;2639;49.700;7.962;2023-07-20T03:58:17;98679.16;;;14.18;93.18
5238;BME280;2639;49.700;7.962;2023-07-20T03:59:20;98681.66;;;14.16;92.35
5238;BME280;2639;49.700;7.962;2023-07-20T04:00:22;98681.56;;;14.15;91.98
5238;BME280;2639;49.700;7.962;2023-07-20T04:01:24;98681.38;;;14.12;91.77
5238;BME280;2639;49.700;7.962;2023-07-20T04:02:26;98680.41;;;14.09;91.12
5238;BME280;2639;49.700;7.962;2023-07-20T04:03:29;98683.69;;;14.07;91.05
5238;BME280;2639;49.700;7.962;2023-07-20T04:04:32;98683.59;;;14.05;92.06
5238;BME280;2639;49.700;7.962;2023-07-20T04:05:34;98681.63;;;14.01;92.43
5238;BME280;2639;49.700;7.962;2023-07-20T04:06:36;98683.13;;;13.98;92.33
5238;BME280;2639;49.700;7.962;2023-07-20T04:07:38;98680.47;;;13.96;92.16
5238;BME280;2639;49.700;7.962;2023-07-20T04:08:40;98682.06;;;13.94;92.05
5238;BME280;2639;49.700;7.962;2023-07-20T04:09:43;98678.47;;;13.92;92.74
5238;BME280;2639;49.700;7.962;2023-07-20T04:10:44;98681.78;;;13.89;93.10
5238;BME280;2639;49.700;7.962;2023-07-20T04:11:47;98683.47;;;13.89;93.29
5238;BME280;2639;49.700;7.962;2023-07-20T04:12:49;98676.53;;;13.88;92.99
5238;BME280;2639;49.700;7.962;2023-07-20T04:13:51;98686.88;;;13.88;92.45
5238;BME280;2639;49.700;7.962;2023-07-20T04:14:53;98681.69;;;13.88;93.17
5238;BME280;2639;49.700;7.962;2023-07-20T04:15:55;98685.16;;;13.88;92.35
5238;BME280;2639;49.700;7.962;2023-07-20T04:16:57;98681.69;;;13.88;92.98
5238;BME280;2639;49.700;7.962;2023-07-20T04:17:59;98686.75;;;13.86;92.44
5238;BME280;2639;49.700;7.962;2023-07-20T04:19:02;98686.75;;;13.86;92.80
5238;BME280;2639;49.700;7.962;2023-07-20T04:20:06;98691.81;;;13.85;93.02
5238;BME280;2639;49.700;7.962;2023-07-20T04:21:09;98683.09;;;13.83;94.14
5238;BME280;2639;49.700;7.962;2023-07-20T04:22:11;98687.28;;;13.81;94.12
5238;BME280;2639;49.700;7.962;2023-07-20T04:23:16;98686.31;;;13.79;93.79
5238;BME280;2639;49.700;7.962;2023-07-20T04:24:18;98681.16;;;13.79;93.82
5238;BME280;2639;49.700;7.962;2023-07-20T04:25:21;98685.59;;;13.81;94.75
5238;BME280;2639;49.700;7.962;2023-07-20T04:26:23;98682.31;;;13.84;94.85
5238;BME280;2639;49.700;7.962;2023-07-20T04:27:26;98685.88;;;13.86;96.01
5238;BME280;2639;49.700;7.962;2023-07-20T04:28:28;98686.88;;;13.88;96.55
5238;BME280;2639;49.700;7.962;2023-07-20T04:29:31;98688.63;;;13.89;96.09
5238;BME280;2639;49.700;7.962;2023-07-20T04:30:33;98692.19;;;13.91;96.57
5238;BME280;2639;49.700;7.962;2023-07-20T04:31:35;98690.59;;;13.93;97.16
5238;BME280;2639;49.700;7.962;2023-07-20T04:32:37;98692.38;;;13.94;97.01
5238;BME280;2639;49.700;7.962;2023-07-20T04:33:48;98689.91;;;13.96;97.00
5238;BME280;2639;49.700;7.962;2023-07-20T04:34:51;98689.19;;;13.98;96.60
5238;BME280;2639;49.700;7.962;2023-07-20T04:35:55;98694.34;;;13.98;95.92
5238;BME280;2639;49.700;7.962;2023-07-20T04:37:00;98685.78;;;13.99;95.71
5238;BME280;2639;49.700;7.962;2023-07-20T04:38:03;98685.00;;;14.00;95.49
5238;BME280;2639;49.700;7.962;2023-07-20T04:39:05;98687.06;;;14.06;94.85
5238;BME280;2639;49.700;7.962;2023-07-20T04:40:26;98687.16;;;14.07;96.22
5238;BME280;2639;49.700;7.962;2023-07-20T04:41:28;98687.97;;;14.06;96.16
5238;BME280;2639;49.700;7.962;2023-07-20T04:42:33;98680.13;;;14.05;97.41
5238;BME280;2639;49.700;7.962;2023-07-20T04:43:34;98690.44;;;14.05;98.02
5238;BME280;2639;49.700;7.962;2023-07-20T04:44:37;98686.28;;;14.07;98.29
5238;BME280;2639;49.700;7.962;2023-07-20T04:45:40;98683.75;;;14.08;97.99
5238;BME280;2639;49.700;7.962;2023-07-20T04:46:43;98688.16;;;14.09;98.31
5238;BME280;2639;49.700;7.962;2023-07-20T04:47:47;98683.16;;;14.13;98.52
5238;BME280;2639;49.700;7.962;2023-07-20T04:48:52;98686.81;;;14.16;99.13
5238;BME280;2639;49.700;7.962;2023-07-20T04:49:54;98686.00;;;14.17;99.48
5238;BME280;2639;49.700;7.962;2023-07-20T04:50:57;98685.28;;;14.20;98.82
5238;BME280;2639;49.700;7.962;2023-07-20T04:51:59;98687.28;;;14.24;99.34
5238;BME280;2639;49.700;7.962;2023-07-20T04:53:04;98687.44;;;14.27;98.62
5238;BME280;2639;49.700;7.962;2023-07-20T04:54:06;98682.47;;;14.30;98.39
5238;BME280;2639;49.700;7.962;2023-07-20T04:55:11;98686.03;;;14.32;99.01
5238;BME280;2639;49.700;7.962;2023-07-20T04:56:13;98679.06;;;14.31;98.73
5238;BME280;2639;49.700;7.962;2023-07-20T04:57:16;98681.06;;;14.35;99.06
5238;BME280;2639;49.700;7.962;2023-07-20T04:58:22;98684.63;;;14.37;99.41
5238;BME280;2639;49.700;7.962;2023-07-20T04:59:25;98672.69;;;14.39;99.08
5238;BME280;2639;49.700;7.962;2023-07-20T06:01:17;98683.47;;;16.54;91.73
5238;BME280;2639;49.700;7.962;2023-07-20T06:02:20;98681.44;;;16.65;91.48
5238;BME280;2639;49.700;7.962;2023-07-20T06:03:22;98684.63;;;16.77;91.91
5238;BME280;2639;49.700;7.962;2023-07-20T06:04:25;98675.56;;;16.85;90.84
5238;BME280;2639;49.700;7.962;2023-07-20T06:05:27;98681.19;;;16.94;89.73
5238;BME280;2639;49.700;7.962;2023-07-20T06:06:30;98678.88;;;17.00;88.21
5238;BME280;2639;49.700;7.962;2023-07-20T06:07:31;98686.22;;;17.09;86.56
5238;BME280;2639;49.700;7.962;2023-07-20T06:08:34;98686.56;;;17.17;85.64
5238;BME280;2639;49.700;7.962;2023-07-20T06:09:36;98686.78;;;17.21;84.03
5238;BME280;2639;49.700;7.962;2023-07-20T06:10:38;98686.34;;;17.30;84.31
5238;BME280;2639;49.700;7.962;2023-07-20T06:11:44;98679.81;;;17.38;82.93
5238;BME280;2639;49.700;7.962;2023-07-20T06:12:46;98685.44;;;17.48;82.83
5238;BME280;2639;49.700;7.962;2023-07-20T06:13:48;98680.69;;;17.57;83.04
5238;BME280;2639;49.700;7.962;2023-07-20T06:14:50;98681.75;;;17.62;81.85
5238;BME280;2639;49.700;7.962;2023-07-20T06:15:52;98683.00;;;17.70;81.15
5238;BME280;2639;49.700;7.962;2023-07-20T06:16:56;98683.94;;;17.72;79.53
5238;BME280;2639;49.700;7.962;2023-07-20T06:17:58;98685.19;;;17.80;79.76
5238;BME280;2639;49.700;7.962;2023-07-20T06:19:00;98683.72;;;17.85;79.56
5238;BME280;2639;49.700;7.962;2023-07-20T06:20:02;98683.09;;;17.91;80.40
5238;BME280;2639;49.700;7.962;2023-07-20T06:21:04;98681.47;;;17.93;78.97
5238;BME280;2639;49.700;7.962;2023-07-20T06:22:06;98681.53;;;17.95;78.69
5238;BME280;2639;49.700;7.962;2023-07-20T06:23:09;98680.88;;;17.99;78.88
5238;BME280;2639;49.700;7.962;2023-07-20T06:24:10;98679.47;;;18.07;78.87
5238;BME280;2639;49.700;7.962;2023-07-20T06:25:13;98680.50;;;18.11;78.87
5238;BME280;2639;49.700;7.962;2023-07-20T06:26:14;98691.22;;;18.18;78.66
5238;BME280;2639;49.700;7.962;2023-07-20T06:27:17;98693.06;;;18.21;77.20
5238;BME280;2639;49.700;7.962;2023-07-20T06:28:19;98676.72;;;18.23;77.18
5238;BME280;2639;49.700;7.962;2023-07-20T06:29:21;98678.63;;;18.27;77.50
5238;BME280;2639;49.700;7.962;2023-07-20T06:30:26;98683.97;;;18.30;77.34
5238;BME280;2639;49.700;7.962;2023-07-20T06:31:32;98683.34;;;18.36;77.41
5238;BME280;2639;49.700;7.962;2023-07-20T06:32:35;98683.53;;;18.41;77.51
5238;BME280;2639;49.700;7.962;2023-07-20T06:33:37;98682.97;;;18.48;77.68
5238;BME280;2639;49.700;7.962;2023-07-20T06:34:39;98680.50;;;18.51;77.33
5238;BME280;2639;49.700;7.962;2023-07-20T06:35:44;98682.50;;;18.57;76.36
5238;BME280;2639;49.700;7.962;2023-07-20T06:36:46;98688.50;;;18.56;76.71
5238;BME280;2639;49.700;7.962;2023-07-20T06:37:49;98679.69;;;18.52;75.88
5238;BME280;2639;49.700;7.962;2023-07-20T06:38:50;98685.81;;;18.54;75.99
5238;BME280;2639;49.700;7.962;2023-07-20T06:39:56;98682.41;;;18.55;76.62
5238;BME280;2639;49.700;7.962;2023-07-20T06:41:00;98686.09;;;18.60;76.00
5238;BME280;2639;49.700;7.962;2023-07-20T06:42:06;98675.00;;;18.64;75.30
5238;BME280;2639;49.700;7.962;2023-07-20T06:43:08;98679.50;;;18.68;74.99
5238;BME280;2639;49.700;7.962;2023-07-20T06:44:14;98683.19;;;18.74;74.82
5238;BME280;2639;49.700;7.962;2023-07-20T06:45:16;98686.19;;;18.83;74.58
5238;BME280;2639;49.700;7.962;2023-07-20T06:46:18;98686.44;;;18.89;74.75
5238;BME280;2639;49.700;7.962;2023-07-20T06:47:20;98680.59;;;18.95;73.17
5238;BME280;2639;49.700;7.962;2023-07-20T06:48:24;98690.34;;;19.00;73.19
5238;BME280;2639;49.700;7.962;2023-07-20T06:49:26;98676.38;;;18.98;73.85
5238;BME280;2639;49.700;7.962;2023-07-20T06:50:29;98677.53;;;19.05;73.23
5238;BME280;2639;49.700;7.962;2023-07-20T06:51:31;98676.81;;;19.09;73.59
5238;BME280;2639;49.700;7.962;2023-07-20T06:52:33;98689.31;;;19.18;73.13
5238;BME280;2639;49.700;7.962;2023-07-20T06:53:35;98672.16;;;19.23;73.27
5238;BME280;2639;49.700;7.962;2023-07-20T06:54:37;98676.72;;;19.28;72.83
5238;BME280;2639;49.700;7.962;2023-07-20T06:55:44;98675.97;;;19.31;72.41
5238;BME280;2639;49.700;7.962;2023-07-20T06:56:48;98672.63;;;19.35;72.38
5238;BME280;2639;49.700;7.962;2023-07-20T06:58:01;98674.28;;;19.33;71.86
5238;BME280;2639;49.700;7.962;2023-07-20T06:59:04;98676.09;;;19.34;71.64
5238;BME280;2639;49.700;7.962;2023-07-20T07:00:09;98679.63;;;19.36;71.16
5238;BME280;2639;49.700;7.962;2023-07-20T07:01:13;98674.44;;;19.36;71.71
5238;BME280;2639;49.700;7.962;2023-07-20T07:02:15;98678.75;;;19.36;72.38
5238;BME280;2639;49.700;7.962;2023-07-20T07:03:17;98678.69;;;19.34;72.39
5238;BME280;2639;49.700;7.962;2023-07-20T07:04:21;98680.69;;;19.41;73.27
5238;BME280;2639;49.700;7.962;2023-07-20T07:05:24;98678.34;;;19.47;71.83
5238;BME280;2639;49.700;7.962;2023-07-20T07:06:36;98678.56;;;19.53;71.90
5238;BME280;2639;49.700;7.962;2023-07-20T07:07:39;98678.72;;;19.58;70.89
5238;BME280;2639;49.700;7.962;2023-07-20T07:08:42;98676.25;;;19.61;70.88
5238;BME280;2639;49.700;7.962;2023-07-20T07:09:46;98676.25;;;19.61;70.21
5238;BME280;2639;49.700;7.962;2023-07-20T07:10:47;98684.25;;;19.66;70.55
5238;BME280;2639;49.700;7.962;2023-07-20T07:11:50;98680.81;;;19.67;70.80
5238;BME280;2639;49.700;7.962;2023-07-20T07:12:52;98681.88;;;19.72;70.30
5238;BME280;2639;49.700;7.962;2023-07-20T07:13:57;98673.28;;;19.74;70.10
5238;BME280;2639;49.700;7.962;2023-07-20T07:14:59;98674.25;;;19.76;69.90
5238;BME280;2639;49.700;7.962;2023-07-20T07:16:02;98684.06;;;19.84;69.84
5238;BME280;2639;49.700;7.962;2023-07-20T07:17:04;98680.81;;;19.89;69.55
5238;BME280;2639;49.700;7.962;2023-07-20T07:18:06;98678.31;;;19.92;69.77
5238;BME280;2639;49.700;7.962;2023-07-20T07:19:08;98674.09;;;19.96;69.28
5238;BME280;2639;49.700;7.962;2023-07-20T07:20:12;98684.63;;;19.99;69.24
5238;BME280;2639;49.700;7.962;2023-07-20T07:21:22;98686.53;;;20.03;68.35
5238;BME280;2639;49.700;7.962;2023-07-20T07:22:24;98683.22;;;20.09;68.19
5238;BME280;2639;49.700;7.962;2023-07-20T07:23:26;98680.72;;;20.12;67.77
5238;BME280;2639;49.700;7.962;2023-07-20T07:24:29;98680.84;;;20.15;67.00
5238;BME280;2639;49.700;7.962;2023-07-20T07:25:35;98679.28;;;20.20;66.46
5238;BME280;2639;49.700;7.962;2023-07-20T07:26:37;98683.88;;;20.27;67.75
5238;BME280;2639;49.700;7.962;2023-07-20T07:27:40;98683.88;;;20.27;66.36
5238;BME280;2639;49.700;7.962;2023-07-20T07:28:42;98680.59;;;20.33;66.76
5238;BME280;2639;49.700;7.962;2023-07-20T07:29:44;98683.50;;;20.41;67.52
5238;BME280;2639;49.700;7.962;2023-07-20T07:30:46;98680.16;;;20.45;66.34
5238;BME280;2639;49.700;7.962;2023-07-20T07:31:48;98686.09;;;20.41;65.91
5238;BME280;2639;49.700;7.962;2023-07-20T07:32:51;98681.50;;;20.33;66.23
5238;BME280;2639;49.700;7.962;2023-07-20T07:33:53;98681.59;;;20.36;66.81
5238;BME280;2639;49.700;7.962;2023-07-20T07:34:56;98687.03;;;20.43;67.23
5238;BME280;2639;49.700;7.962;2023-07-20T07:36:01;98679.38;;;20.47;66.47
5238;BME280;2639;49.700;7.962;2023-07-20T07:37:04;98677.03;;;20.55;66.88
5238;BME280;2639;49.700;7.962;2023-07-20T07:38:05;98684.25;;;20.62;64.95
5238;BME280;2639;49.700;7.962;2023-07-20T07:39:28;98685.56;;;20.51;63.69
5238;BME280;2639;49.700;7.962;2023-07-20T07:40:36;98682.16;;;20.52;64.15
5238;BME280;2639;49.700;7.962;2023-07-20T07:41:38;98686.25;;;20.45;64.49
5238;BME280;2639;49.700;7.962;2023-07-20T07:42:40;98680.16;;;20.45;64.01
5238;BME280;2639;49.700;7.962;2023-07-20T07:43:42;98684.53;;;20.46;64.55
5238;BME280;2639;49.700;7.962;2023-07-20T07:44:44;98683.69;;;20.47;64.30
5238;BME280;2639;49.700;7.962;2023-07-20T07:45:47;98676.72;;;20.46;64.18
5238;BME280;2639;49.700;7.962;2023-07-20T07:46:49;98682.78;;;20.45;63.79
5238;BME280;2639;49.700;7.962;2023-07-20T07:47:51;98681.94;;;20.46;64.47
5238;BME280;2639;49.700;7.962;2023-07-20T07:48:53;98688.16;;;20.49;64.68
5238;BME280;2639;49.700;7.962;2023-07-20T07:49:56;98682.38;;;20.58;65.58
5238;BME280;2639;49.700;7.962;2023-07-20T07:50:58;98684.41;;;20.67;64.63
5238;BME280;2639;49.700;7.962;2023-07-20T07:52:03;98686.53;;;20.78;63.73
5238;BME280;2639;49.700;7.962;2023-07-20T07:53:05;98681.53;;;20.85;63.07
5238;BME280;2639;49.700;7.962;2023-07-20T07:54:07;98678.28;;;20.92;63.12
5238;BME280;2639;49.700;7.962;2023-07-20T07:55:09;98686.34;;;20.99;63.48
5238;BME280;2639;49.700;7.962;2023-07-20T07:56:12;98679.53;;;21.03;61.99
5238;BME280;2639;49.700;7.962;2023-07-20T07:57:13;98691.06;;;21.11;61.36
5238;BME280;2639;49.700;7.962;2023-07-20T07:58:16;98685.97;;;21.14;60.68
5238;BME280;2639;49.700;7.962;2023-07-20T07:59:19;98680.84;;;21.17;61.59
5238;BME280;2639;49.700;7.962;2023-07-20T08:00:22;98680.13;;;21.23;62.04
5238;BME280;2639;49.700;7.962;2023-07-20T08:01:27;98675.91;;;21.27;60.76
5238;BME280;2639;49.700;7.962;2023-07-20T08:02:29;98677.94;;;21.37;61.17
5238;BME280;2639;49.700;7.962;2023-07-20T08:11:41;98691.66;;;21.57;60.31
5238;BME280;2639;49.700;7.962;2023-07-20T08:12:43;98686.50;;;21.60;59.80
5238;BME280;2639;49.700;7.962;2023-07-20T08:13:45;98686.66;;;21.64;59.67
5238;BME280;2639;49.700;7.962;2023-07-20T08:14:48;98681.34;;;21.61;59.71
5238;BME280;2639;49.700;7.962;2023-07-20T08:15:51;98690.50;;;21.47;59.46
5238;BME280;2639;49.700;7.962;2023-07-20T08:16:53;98691.78;;;21.33;58.68
5238;BME280;2639;49.700;7.962;2023-07-20T08:17:55;98684.56;;;21.26;59.33
5238;BME280;2639;49.700;7.962;2023-07-20T08:18:59;98688.03;;;21.25;59.83
5238;BME280;2639;49.700;7.962;2023-07-20T08:20:01;98696.06;;;21.31;59.74
5238;BME280;2639;49.700;7.962;2023-07-20T08:21:04;98697.16;;;21.39;59.85
5238;BME280;2639;49.700;7.962;2023-07-20T08:22:05;98690.31;;;21.41;60.26
5238;BME280;2639;49.700;7.962;2023-07-20T08:23:08;98687.03;;;21.48;60.29
5238;BME280;2639;49.700;7.962;2023-07-20T08:24:10;98683.97;;;21.61;60.46
5238;BME280;2639;49.700;7.962;2023-07-20T08:25:13;98680.75;;;21.72;60.25
5238;BME280;2639;49.700;7.962;2023-07-20T08:26:14;98685.31;;;21.77;60.50
5238;BME280;2639;49.700;7.962;2023-07-20T08:27:18;98687.00;;;21.77;60.58
5238;BME280;2639;49.700;7.962;2023-07-20T08:28:20;98692.06;;;21.71;59.03
5238;BME280;2639;49.700;7.962;2023-07-20T08:29:23;98690.06;;;21.62;58.55
5238;BME280;2639;49.700;7.962;2023-07-20T08:30:25;98693.53;;;21.61;59.40
5238;BME280;2639;49.700;7.962;2023-07-20T08:31:27;98696.88;;;21.57;59.73
5238;BME280;2639;49.700;7.962;2023-07-20T08:32:29;98693.47;;;21.59;60.08
5238;BME280;2639;49.700;7.962;2023-07-20T08:33:32;98694.50;;;21.64;58.77
5238;BME280;2639;49.700;7.962;2023-07-20T08:34:35;98691.22;;;21.72;59.83
5238;BME280;2639;49.700;7.962;2023-07-20T08:35:37;98692.38;;;21.81;59.70
5238;BME280;2639;49.700;7.962;2023-07-20T08:36:39;98692.63;;;21.89;59.16
5238;BME280;2639;49.700;7.962;2023-07-20T08:37:41;98688.53;;;21.99;59.11
5238;BME280;2639;49.700;7.962;2023-07-20T08:38:43;98688.56;;;22.00;58.62
5238;BME280;2639;49.700;7.962;2023-07-20T08:39:46;98683.16;;;21.94;57.88
5238;BME280;2639;49.700;7.962;2023-07-20T08:40:47;98679.63;;;21.92;58.28
5238;BME280;2639;49.700;7.962;2023-07-20T08:41:50;98675.38;;;21.96;59.02
5238;BME280;2639;49.700;7.962;2023-07-20T08:42:55;98688.38;;;21.94;58.73
5238;BME280;2639;49.700;7.962;2023-07-20T08:43:59;98685.38;;;21.80;58.79
5238;BME280;2639;49.700;7.962;2023-07-20T08:45:04;98693.69;;;21.67;58.27
5238;BME280;2639;49.700;7.962;2023-07-20T08:46:08;98692.34;;;21.51;58.85
5238;BME280;2639;49.700;7.962;2023-07-20T08:47:13;98685.13;;;21.42;58.25
5238;BME280;2639;49.700;7.962;2023-07-20T08:48:18;98691.06;;;21.38;58.19
5238;BME280;2639;49.700;7.962;2023-07-20T08:49:21;98689.50;;;21.43;58.46
5238;BME280;2639;49.700;7.962;2023-07-20T08:50:25;98686.28;;;21.52;58.41
5238;BME280;2639;49.700;7.962;2023-07-20T08:51:28;98681.63;;;21.71;59.00
5238;BME280;2639;49.700;7.962;2023-07-20T08:52:32;98681.22;;;21.87;58.53
5238;BME280;2639;49.700;7.962;2023-07-20T08:53:35;98688.84;;;22.10;58.30
5238;BME280;2639;49.700;7.962;2023-07-20T08:54:37;98679.69;;;22.25;56.92
5238;BME280;2639;49.700;7.962;2023-07-20T08:55:42;98662.66;;;22.40;57.04
5238;BME280;2639;49.700;7.962;2023-07-20T08:56:46;98663.84;;;22.53;55.92
5238;BME280;2639;49.700;7.962;2023-07-20T08:57:50;98664.78;;;22.55;56.08
5238;BME280;2639;49.700;7.962;2023-07-20T08:58:53;98660.59;;;22.61;57.27
5238;BME280;2639;49.700;7.962;2023-07-20T08:59:56;98669.47;;;22.68;56.17
5238;BME280;2639;49.700;7.962;2023-07-20T09:00:58;98662.38;;;22.64;55.47
5238;BME280;2639;49.700;7.962;2023-07-20T09:02:04;98661.63;;;22.68;55.85
5238;BME280;2639;49.700;7.962;2023-07-20T09:03:06;98662.69;;;22.76;56.73
5238;BME280;2639;49.700;7.962;2023-07-20T09:04:10;98661.16;;;22.84;56.46
5238;BME280;2639;49.700;7.962;2023-07-20T09:05:12;98661.28;;;22.90;56.25
5238;BME280;2639;49.700;7.962;2023-07-20T09:06:16;98663.06;;;22.92;55.27
5238;BME280;2639;49.700;7.962;2023-07-20T09:07:18;98666.63;;;22.94;54.97
5238;BME280;2639;49.700;7.962;2023-07-20T09:08:21;98666.50;;;22.89;55.42
5238;BME280;2639;49.700;7.962;2023-07-20T09:09:23;98667.09;;;22.77;55.90
5238;BME280;2639;49.700;7.962;2023-07-20T09:10:25;98671.22;;;22.67;56.25
5238;BME280;2639;49.700;7.962;2023-07-20T09:11:27;98663.13;;;22.58;56.34
5238;BME280;2639;49.700;7.962;2023-07-20T09:12:29;98662.16;;;22.55;56.36
5238;BME280;2639;49.700;7.962;2023-07-20T09:13:32;98666.53;;;22.56;56.37
5238;BME280;2639;49.700;7.962;2023-07-20T09:14:37;98656.06;;;22.56;55.58
5238;BME280;2639;49.700;7.962;2023-07-20T09:15:39;98661.41;;;22.60;55.95
5238;BME280;2639;49.700;7.962;2023-07-20T09:16:48;98658.56;;;22.51;55.31
5238;BME280;2639;49.700;7.962;2023-07-20T09:17:50;98654.81;;;22.41;55.41
5238;BME280;2639;49.700;7.962;2023-07-20T09:18:57;98663.47;;;22.37;56.29
5238;BME280;2639;49.700;7.962;2023-07-20T09:20:02;98667.53;;;22.26;55.65
5238;BME280;2639;49.700;7.962;2023-07-20T09:21:09;98664.63;;;22.17;55.17
5238;BME280;2639;49.700;7.962;2023-07-20T09:22:11;98664.03;;;22.27;55.99
5238;BME280;2639;49.700;7.962;2023-07-20T09:23:14;98652.13;;;22.38;56.18
5238;BME280;2639;49.700;7.962;2023-07-20T09:24:18;98663.03;;;22.55;56.88
5238;BME280;2639;49.700;7.962;2023-07-20T09:25:22;98653.59;;;22.62;55.75
5238;BME280;2639;49.700;7.962;2023-07-20T09:26:26;98657.38;;;22.73;55.68
5238;BME280;2639;49.700;7.962;2023-07-20T09:27:35;98657.78;;;22.88;54.93
5238;BME280;2639;49.700;7.962;2023-07-20T09:28:41;98652.84;;;23.01;53.98
5238;BME280;2639;49.700;7.962;2023-07-20T09:29:50;98657.16;;;22.99;53.76
5238;BME280;2639;49.700;7.962;2023-07-20T09:30:54;98661.28;;;22.90;53.19
5238;BME280;2639;49.700;7.962;2023-07-20T09:32:00;98653.31;;;22.86;53.19
5238;BME280;2639;49.700;7.962;2023-07-20T09:33:02;98662.91;;;22.85;53.39
5238;BME280;2639;49.700;7.962;2023-07-20T09:34:06;98654.22;;;22.86;54.02
5238;BME280;2639;49.700;7.962;2023-07-20T09:35:12;98660.19;;;22.81;54.68
5238;BME280;2639;49.700;7.962;2023-07-20T09:36:19;98659.94;;;22.70;55.27
5238;BME280;2639;49.700;7.962;2023-07-20T09:37:46;98662.56;;;22.70;55.33
5238;BME280;2639;49.700;7.962;2023-07-20T09:38:49;98664.53;;;22.80;54.83
5238;BME280;2639;49.700;7.962;2023-07-20T09:39:54;98657.69;;;22.85;54.90
5238;BME280;2639;49.700;7.962;2023-07-20T09:41:00;98656.84;;;22.86;54.60
5238;BME280;2639;49.700;7.962;2023-07-20T09:42:02;98657.63;;;22.82;55.16
5238;BME280;2639;49.700;7.962;2023-07-20T09:43:10;98655.03;;;22.84;55.65
5238;BME280;2639;49.700;7.962;2023-07-20T09:44:15;98659.47;;;22.86;55.30
5238;BME280;2639;49.700;7.962;2023-07-20T09:45:22;98652.66;;;22.95;55.87
5238;BME280;2639;49.700;7.962;2023-07-20T09:46:44;98649.31;;;22.99;54.88
5238;BME280;2639;49.700;7.962;2023-07-20T09:47:50;98646.03;;;23.09;54.82
5238;BME280;2639;49.700;7.962;2023-07-20T09:49:13;98649.69;;;23.14;53.93
5238;BME280;2639;49.700;7.962;2023-07-20T09:50:19;98648.72;;;23.10;54.27
5238;BME280;2639;49.700;7.962;2023-07-20T09:51:24;98655.75;;;23.13;54.15
5238;BME280;2639;49.700;7.962;2023-07-20T09:52:27;98651.38;;;23.12;52.96
5238;BME280;2639;49.700;7.962;2023-07-20T09:53:33;98648.81;;;23.15;53.89
5238;BME280;2639;49.700;7.962;2023-07-20T09:54:37;98644.50;;;23.17;54.44
5238;BME280;2639;49.700;7.962;2023-07-20T09:55:40;98642.91;;;23.25;52.94